Latest Weather Observations for St Helens

IDT60801

Issued at 2:21 pm EST Sunday 5 April 2020 (issued every 10 minutes, with the page automatically refreshed every 10 minutes)

About weather observations | Map of weather stations | Latest weather observations for TAS | Other Formats
Station Details ID: 092120 Name: ST HELENS AERODROME Lat: -41.34 Lon: 148.28 Height: 48.0 m
Data from the previous 72 hours. | See also: Recent months at St Helens
Date/Time
EST
Temp
°C
App
Temp
°C
Dew
Point
°C
Rel
Hum
%
Delta-T
°C
Wind Press
QNH
hPa
Press
MSL
hPa
Rain since
9am
mm
Dir  Spd
km/h
Gust
km/h
Spd
kts
Gust
kts
05/02:00pm 11.6 6.8 2.4 53 4.0 WSW 17 30 9 16 998.3 998.3 18.4
05/01:30pm 12.7 8.2 4.4 57 3.8 SW 17 35 9 19 997.8 997.8 18.4
05/01:00pm 12.2 8.2 4.7 60 3.4 WSW 15 24 8 13 996.8 996.8 18.4
05/12:30pm 10.7 7.1 5.0 68 2.6 SW 13 24 7 13 996.1 996.1 18.4
05/12:00pm 8.0 4.0 5.1 82 1.3 WSW 15 33 8 18 995.2 995.2 18.4
05/11:50am 7.1 2.3 4.8 85 1.0 SW 19 43 10 23 994.7 994.6 18.4
05/11:30am 6.2 -1.0 5.2 93 0.4 SW 32 56 17 30 992.7 992.6 18.4
05/11:13am 5.8 -1.6 4.8 93 0.4 SW 33 67 18 36 991.9 991.8 18.2
05/11:09am 5.7 -2.5 4.8 94 0.4 SSW 37 67 20 36 991.2 991.1 17.8
05/11:00am 5.3 -3.7 4.4 94 0.4 SSW 41 63 22 34 989.0 988.9 17.6
05/10:49am 5.3 -4.1 4.6 95 0.3 SW 43 82 23 44 989.0 988.9 16.2
05/10:46am 5.1 -3.9 4.4 95 0.3 SW 41 82 22 44 989.0 988.9 16.0
05/10:36am 5.0 -3.7 4.1 94 0.4 SSW 39 87 21 47 987.3 987.2 15.2
05/10:34am 5.1 -2.8 4.1 93 0.4 SSW 35 87 19 47 986.6 986.5 14.8
05/10:33am 5.1 -2.8 4.2 94 0.4 SSW 35 87 19 47 986.3 986.2 14.6
05/10:30am 5.8 -1.4 5.2 96 0.3 SSW 32 56 17 30 986.5 986.4 14.2
05/10:21am 6.2 -0.9 5.5 95 0.3 SE 32 52 17 28 985.1 985.1 11.6
05/10:19am 6.4 0.1 5.7 95 0.3 ESE 28 52 15 28 985.2 985.2 11.4
05/10:14am 6.9 1.5 6.5 97 0.2 SE 24 50 13 27 987.4 987.3 10.2
05/10:00am 7.8 5.2 7.7 99 0.0 SSE 11 19 6 10 988.0 987.9 9.2
05/09:42am 7.5 2.3 7.4 99 0.0 S 24 48 13 26 987.9 987.8 7.6
05/09:30am 7.7 4.3 7.6 99 0.0 S 15 24 8 13 990.1 990.0 4.4
05/09:28am 7.7 4.7 7.6 99 0.0 S 13 24 7 13 990.3 990.2 3.8
05/09:11am 7.9 6.0 7.6 98 0.1 S 7 13 4 7 992.3 992.2 1.2
05/09:00am 8.0 7.1 7.7 98 0.1 SSE 2 7 1 4 993.0 992.9 8.0
05/08:30am 7.7 6.7 7.3 97 0.2 SE 2 7 1 4 994.2 994.1 5.4
05/08:27am 7.8 6.4 7.4 97 0.2 ESE 4 7 2 4 994.3 994.2 5.0
05/08:00am 7.6 6.5 6.9 95 0.3 S 2 6 1 3 995.4 995.4 2.4
05/07:30am 8.0 6.1 6.6 91 0.6 WNW 6 9 3 5 996.0 996.0 1.8
05/07:00am 8.3 5.7 5.9 85 1.1 NNW 9 17 5 9 996.7 996.7 1.2
05/06:30am 8.8 4.8 4.8 76 1.8 NW 15 20 8 11 996.6 996.6 0.8
05/06:00am 8.4 4.7 4.4 76 1.8 NW 13 19 7 10 996.9 996.8 0.8
05/05:30am 8.4 4.7 4.4 76 1.8 NW 13 20 7 11 996.8 996.8 0.8
05/05:00am 7.9 4.8 3.8 75 1.8 WNW 9 13 5 7 997.4 997.4 0.8
05/04:30am 8.4 5.3 3.7 72 2.0 NW 9 13 5 7 997.4 997.4 0.8
05/04:00am 8.3 5.2 3.8 73 1.9 WNW 9 15 5 8 997.5 997.5 0.8
05/03:30am 8.0 5.2 2.9 70 2.2 W 7 13 4 7 997.9 997.9 0.8
05/03:00am 8.7 4.8 3.5 70 2.3 W 13 20 7 11 997.8 997.8 0.8
05/03:30am 8.8 3.4 2.6 65 2.6 WNW 20 33 11 18 997.8 997.8 0.8
05/03:00am 8.8 4.5 1.2 59 3.1 NW 13 19 7 10 997.9 997.9 0.8
05/02:30am 8.5 4.6 1.4 61 2.9 W 11 20 6 11 997.8 997.8 0.8
05/02:00am 8.5 4.3 1.9 63 2.7 W 13 20 7 11 997.6 997.6 0.8
05/01:30am 8.3 4.3 3.0 69 2.3 WNW 13 22 7 12 997.3 997.3 0.8
05/01:00am 8.7 4.7 2.9 67 2.5 WNW 13 22 7 12 997.1 997.1 0.8
05/12:30am 8.5 5.2 2.7 67 2.5 WNW 9 15 5 8 997.1 997.1 0.8
05/12:00am 9.5 6.4 3.5 66 2.6 W 9 17 5 9 997.2 997.2 0.8
 
Date/Time
EST
Temp
°C
App
Temp
°C
Dew
Point
°C
Rel
Hum
%
Delta-T
°C
Wind Press
QNH
hPa
Press
MSL
hPa
Rain since
9am
mm
Dir  Spd
km/h
Gust
km/h
Spd
kts
Gust
kts
04/11:30pm 9.6 5.6 3.1 64 2.8 WNW 13 17 7 9 996.6 996.6 0.8
04/11:00pm 10.5 6.6 3.5 62 3.1 W 13 22 7 12 996.1 996.1 0.8
04/10:30pm 10.4 6.6 3.7 63 3.0 WSW 13 20 7 11 995.8 995.8 0.8
04/10:00pm 10.7 7.2 3.5 61 3.2 W 11 20 6 11 995.4 995.4 0.8
04/09:30pm 11.3 7.6 4.3 62 3.1 W 13 22 7 12 995.1 995.0 0.8
04/09:00pm 11.1 8.2 4.8 65 2.9 WSW 9 17 5 9 994.4 994.3 0.8
04/08:30pm 11.6 8.9 5.7 67 2.7 W 9 15 5 8 993.9 993.8 0.8
04/08:00pm 11.6 9.9 8.5 81 1.5 NW 7 11 4 6 993.5 993.4 0.8
04/07:30pm 10.8 8.7 6.7 76 1.9 SSW 7 13 4 7 993.1 993.0 0.8
04/07:00pm 12.1 9.7 7.2 72 2.4 SSW 9 17 5 9 992.3 992.2 0.8
04/06:30pm 13.3 11.7 8.2 71 2.5 SSW 6 11 3 6 991.4 991.3 0.8
04/06:00pm 13.4 11.0 8.7 73 2.4 SSW 11 17 6 9 990.6 990.5 0.8
04/05:30pm 14.6 11.8 8.5 67 3.1 SSW 13 24 7 13 989.9 989.8 0.8
04/05:00pm 15.1 12.1 9.2 68 3.0 SSW 15 28 8 15 989.7 989.6 0.8
04/04:30pm 13.6 10.1 8.7 72 2.5 SSW 17 26 9 14 989.3 989.2 0.8
04/04:00pm 13.3 10.1 9.9 80 1.8 SSW 17 28 9 15 988.4 988.3 0.8
04/03:30pm 16.3 13.6 10.2 67 3.2 W 15 28 8 15 987.3 987.2 0.6
04/03:00pm 16.7 14.3 10.1 65 3.5 WSW 13 30 7 16 986.9 986.8 0.6
04/02:30pm 17.4 16.0 11.0 66 3.5 WNW 9 19 5 10 986.6 986.5 0.6
04/02:00pm 16.9 15.5 11.0 68 3.2 WNW 9 15 5 8 986.5 986.4 0.6
04/01:30pm 16.6 15.3 11.1 70 3.0 WNW 9 13 5 7 986.7 986.6 0.6
04/01:00pm 16.3 15.4 11.5 73 2.6 W 7 13 4 7 986.7 986.6 0.6
04/12:30pm 15.7 14.0 11.3 75 2.4 WNW 11 15 6 8 986.8 986.7 0.6
04/12:00pm 15.4 14.1 11.2 76 2.3 W 9 17 5 9 987.0 986.9 0.6
04/11:30am 15.2 14.7 12.7 85 1.4 W 7 13 4 7 986.9 986.8 0.6
04/11:00am 14.6 13.9 13.1 91 0.8 WSW 9 15 5 8 987.1 987.0 0.6
04/10:30am 14.3 13.2 13.0 92 0.7 WNW 11 19 6 10 988.1 988.0 0.6
04/10:00am 14.2 13.0 12.8 91 0.8 NW 11 15 6 8 988.6 988.5 0.6
04/09:30am 14.3 13.4 12.5 89 1.0 NW 9 13 5 7 988.7 988.6 0.2
04/09:00am 14.8 13.9 12.7 87 1.2 NW 9 15 5 8 989.0 988.9 0.2
04/08:30am 15.5 13.6 11.7 78 2.1 W 13 20 7 11 988.9 988.8 0.0
04/08:00am 16.7 14.6 12.3 75 2.4 W 15 24 8 13 989.4 989.3 0.0
04/07:30am 16.9 16.4 14.9 88 1.2 NNW 11 17 6 9 989.5 989.4 0.0
04/07:00am 17.0 16.7 15.5 91 0.9 NNE 11 19 6 10 989.7 989.6 0.0
04/06:30am 17.1 16.4 15.4 90 1.0 N 13 19 7 10 989.8 989.7 0.0
04/06:00am 17.4 16.8 15.7 90 1.0 N 13 24 7 13 990.7 990.6 0.0
04/05:41am 17.5 15.8 15.8 90 1.0 N 19 28 10 15 990.8 990.7 0.0
04/05:30am 17.7 16.1 15.9 89 1.1 N 19 32 10 17 990.8 990.7 0.0
04/05:00am 17.6 16.2 16.5 93 0.7 NNE 19 28 10 15 991.3 991.2 0.0
04/04:30am 17.6 16.6 16.5 93 0.7 N 17 24 9 13 992.0 991.9 0.0
04/04:00am 17.9 16.3 16.6 92 0.8 NNE 20 33 11 18 992.7 992.6 0.0
04/03:30am 17.4 15.9 16.3 93 0.7 N 19 33 10 18 993.4 993.3 0.0
04/03:00am 17.2 16.8 16.1 93 0.7 N 13 22 7 12 994.5 994.4 0.0
04/02:53am 17.0 17.3 15.9 93 0.6 N 9 15 5 8 994.8 994.7 0.0
04/02:30am 16.6 16.7 15.6 94 0.6 N 9 15 5 8 995.5 995.5 0.0
04/02:11am 16.2 16.2 15.2 94 0.6 N 9 13 5 7 995.9 995.9 0.0
04/02:00am 16.0 16.3 14.9 93 0.6 NNW 7 13 4 7 996.0 996.0 0.0
04/01:30am 15.7 16.1 14.7 94 0.6 NW 6 11 3 6 996.4 996.4 0.0
04/01:00am 15.9 16.3 14.8 93 0.6 W 6 13 3 7 997.2 997.2 0.0
04/12:30am 14.9 15.4 14.1 95 0.5 NW 4 7 2 4 997.8 997.8 0.0
04/12:00am 14.8 14.9 13.8 94 0.6 WNW 6 11 3 6 998.2 998.2 0.0
 
Date/Time
EST
Temp
°C
App
Temp
°C
Dew
Point
°C
Rel
Hum
%
Delta-T
°C
Wind Press
QNH
hPa
Press
MSL
hPa
Rain since
9am
mm
Dir  Spd
km/h
Gust
km/h
Spd
kts
Gust
kts
03/11:30pm 15.1 15.6 14.1 94 0.6 WNW 4 9 2 5 998.6 998.6 0.0
03/11:00pm 14.6 15.4 13.8 95 0.4 WNW 2 11 1 6 999.3 999.3 0.0
03/10:30pm 14.2 14.5 13.4 95 0.4 W 4 9 2 5 999.9 999.9 0.0
03/10:08pm 13.9 14.4 12.8 93 0.6 W 2 7 1 4 1000.3 1000.3 0.0
03/10:05pm 13.8 14.2 12.5 92 0.7 W 2 7 1 4 1000.3 1000.3 0.0
03/10:00pm 13.9 14.3 12.5 91 0.8 WNW 2 6 1 3 1000.4 1000.4 0.0
03/09:30pm 15.6 16.9 14.1 91 0.9 CALM 0 0 0 0 1000.8 1000.8 0.0
03/09:00pm 15.1 15.0 13.8 92 0.7 NE 7 9 4 5 1000.9 1000.9 0.0
03/08:58pm 15.0 14.8 13.5 91 0.8 NE 7 9 4 5 1000.9 1000.9 0.0
03/08:30pm 15.5 15.3 13.7 89 1.0 NNE 7 11 4 6 1001.2 1001.2 0.0
03/08:00pm 16.0 15.1 13.8 87 1.2 N 11 17 6 9 1001.5 1001.5 0.0
03/07:30pm 16.5 15.3 14.0 85 1.4 N 13 22 7 12 1001.8 1001.8 0.0
03/07:00pm 17.1 15.8 12.6 75 2.5 N 11 17 6 9 1001.5 1001.5 0.0
03/06:30pm 17.8 15.8 12.7 72 2.8 N 15 22 8 12 1001.4 1001.4 0.0
03/06:00pm 18.7 17.1 12.7 68 3.4 NNW 13 22 7 12 1001.5 1001.5 0.0
03/05:30pm 18.7 17.5 12.7 68 3.4 NNW 11 17 6 9 1001.4 1001.4 0.0
03/05:00pm 19.1 18.7 13.1 68 3.4 NW 7 17 4 9 1001.4 1001.4 0.0
03/04:30pm 20.1 18.4 12.3 61 4.4 NNW 13 20 7 11 1001.6 1001.6 0.0
03/04:00pm 20.9 20.3 13.4 62 4.3 NNW 9 15 5 8 1002.0 1002.0 0.0
03/03:30pm 19.2 18.8 12.9 67 3.6 ENE 7 9 4 5 1002.2 1002.2 0.0
03/03:00pm 18.5 17.5 12.3 67 3.5 NW 9 17 5 9 1002.5 1002.6 0.0
03/02:30pm 18.7 17.6 12.0 65 3.7 WNW 9 15 5 8 1002.7 1002.7 0.0
03/02:00pm 18.8 16.8 11.6 63 4.0 WNW 13 22 7 12 1003.0 1003.0 0.0
03/01:30pm 18.3 15.5 11.4 64 3.8 WNW 17 32 9 17 1003.3 1003.3 0.0
03/01:00pm 17.8 15.8 11.6 67 3.4 W 13 24 7 13 1003.4 1003.4 0.0
03/12:30pm 17.2 14.9 11.7 70 3.0 WNW 15 30 8 16 1003.7 1003.7 0.0
03/12:00pm 17.2 15.4 12.1 72 2.8 WNW 13 20 7 11 1003.6 1003.6 0.0
03/11:30am 17.5 15.2 11.8 69 3.1 WNW 15 22 8 12 1003.6 1003.6 0.0
03/11:00am 17.7 15.8 11.9 69 3.2 NW 13 22 7 12 1003.9 1003.9 0.0
03/10:30am 17.7 16.6 11.9 69 3.2 NW 9 15 5 8 1003.8 1003.8 0.0
03/10:00am 17.2 15.4 12.1 72 2.8 N 13 19 7 10 1003.9 1003.9 0.0
03/09:30am 16.6 16.2 12.4 76 2.3 WNW 6 11 3 6 1004.1 1004.1 0.0
03/09:00am 15.7 15.8 12.6 82 1.7 W 4 9 2 5 1003.8 1003.8 21.6
03/08:30am 15.2 14.1 11.8 80 1.8 WNW 9 11 5 6 1003.8 1003.8 21.6
03/08:00am 15.4 13.9 11.8 79 2.0 NNW 11 17 6 9 1003.5 1003.5 21.6
03/07:30am 15.0 14.4 12.3 84 1.5 NNW 7 15 4 8 1003.3 1003.3 21.6
03/07:00am 14.8 13.2 12.7 87 1.2 WNW 13 17 7 9 1002.8 1002.8 21.6
03/06:30am 15.6 13.9 12.4 81 1.8 WNW 13 20 7 11 1002.5 1002.5 21.6
03/06:00am 15.9 14.2 12.6 81 1.8 WNW 13 20 7 11 1001.8 1001.8 21.6
03/05:30am 16.3 14.4 13.0 81 1.8 WNW 15 22 8 12 1001.4 1001.4 21.6
03/05:00am 16.4 15.5 13.7 84 1.5 WNW 11 20 6 11 1001.3 1001.3 21.6
03/04:30am 16.5 15.4 14.3 87 1.3 NW 13 20 7 11 1001.0 1001.0 21.6
03/04:00am 16.4 15.3 14.2 87 1.3 NNW 13 17 7 9 1000.9 1000.9 21.6
03/03:30am 16.7 15.3 14.5 87 1.3 N 15 20 8 11 1001.0 1001.0 21.6
03/03:00am 16.9 15.5 14.4 85 1.4 N 15 20 8 11 1001.2 1001.2 21.6
03/02:30am 17.0 15.7 14.8 87 1.3 NNW 15 22 8 12 1001.3 1001.3 21.6
03/02:00am 16.8 15.4 15.5 92 0.8 NW 17 24 9 13 1001.3 1001.3 21.6
03/01:30am 16.3 16.7 15.3 94 0.6 W 7 13 4 7 1001.1 1001.1 21.6
03/01:00am 16.5 16.1 15.2 92 0.8 NNW 11 17 6 9 1001.2 1001.2 21.6
03/12:30am 16.7 15.9 15.2 91 0.9 NNW 13 20 7 11 1001.4 1001.4 21.6
03/12:25am 16.8 16.0 15.2 90 0.9 NW 13 20 7 11 1001.6 1001.6 21.6
03/12:12am 16.9 16.5 15.1 89 1.0 NW 11 19 6 10 1001.8 1001.8 21.6
03/12:00am 16.9 16.0 14.9 88 1.2 NNW 13 20 7 11 1001.8 1001.8 21.6
 
Date/Time
EST
Temp
°C
App
Temp
°C
Dew
Point
°C
Rel
Hum
%
Delta-T
°C
Wind Press
QNH
hPa
Press
MSL
hPa
Rain since
9am
mm
Dir  Spd
km/h
Gust
km/h
Spd
kts
Gust
kts
02/11:30pm 17.3 15.3 14.9 86 1.4 N 19 28 10 15 1002.0 1002.0 21.6
02/11:00pm 17.4 15.4 15.0 86 1.4 NNW 19 30 10 16 1002.2 1002.2 21.6
02/10:30pm 17.5 16.1 15.5 88 1.2 NNW 17 30 9 16 1002.4 1002.4 21.6
02/10:00pm 17.4 15.6 15.6 89 1.1 N 19 26 10 14 1002.3 1002.3 21.6
02/09:30pm 17.3 16.6 15.3 88 1.2 NNW 13 20 7 11 1002.4 1002.4 21.6
02/09:00pm 17.6 15.8 15.4 87 1.3 NNW 19 28 10 15 1002.5 1002.5 21.6
02/08:30pm 17.7 16.4 15.9 89 1.1 NNW 17 24 9 13 1002.3 1002.3 21.6
02/08:00pm 17.3 17.4 16.5 95 0.5 NW 11 17 6 9 1002.3 1002.3 21.6
02/07:30pm 17.4 17.6 16.8 96 0.4 NW 11 20 6 11 1002.4 1002.4 21.6
02/07:22pm 17.5 16.9 16.7 95 0.5 NW 15 22 8 12 1002.5 1002.5 21.6
02/07:00pm 17.8 18.2 17.3 97 0.3 NNW 11 19 6 10 1002.6 1002.6 21.0
02/06:30pm 17.8 17.8 17.3 97 0.3 N 13 19 7 10 1003.0 1003.0 20.8
02/06:00pm 17.5 17.5 17.2 98 0.2 N 13 20 7 11 1002.9 1002.9 20.8
02/05:30pm 17.3 17.2 17.0 98 0.2 NNE 13 19 7 10 1003.3 1003.3 20.8
02/05:00pm 17.2 16.2 16.7 97 0.3 NNE 17 30 9 16 1003.7 1003.7 20.8
02/04:30pm 17.5 15.9 16.5 94 0.6 NNE 20 35 11 19 1004.2 1004.2 20.2
02/04:05pm 17.7 17.8 16.6 93 0.7 N 11 15 6 8 1004.8 1004.8 19.4
02/04:00pm 17.7 17.7 16.2 91 0.9 N 11 15 6 8 1004.9 1004.9 19.2
02/03:30pm 18.1 16.9 16.1 88 1.2 N 17 24 9 13 1005.2 1005.2 19.0
02/03:29pm 18.1 16.9 16.1 88 1.2 N 17 35 9 19 1005.2 1005.2 19.0

Other formats

Comma delimited format used in spreadsheet applications
http://www.bom.gov.au/fwo/IDT60801/IDT60801.95981.axf

JavaScript Object Notation format (JSON) in row-major order
http://www.bom.gov.au/fwo/IDT60801/IDT60801.95981.json

Data quality

Most of these data are generated automatically and are frequently updated. Quality checks on data are not normally performed. It is possible for incorrect values to appear. Refer to information at About Latest Weather Observations and please check the disclaimer before using these data.